Terminal Aerodrome Forecast
Issued by NWS Wilmington, OH

Current Version | Previous Version | Graphics & Text | Print | Product List | Glossary On
Versions: 1 2 3 4 5 6 7 8 9 10 11 12 13 14 15 16 17 18 19 20 21 22 23 24 25 26 27
000
FTUS41 KILN 310900 AAA
TAFCVG
TAF AMD
KCVG 310908Z 3109/0112 19005KT 3SM -SHRA BR SCT005 BKN050
      TEMPO 3109/3113 2SM SHRA OVC005
     FM311300 18005KT 2SM -SHRA BR OVC006
     FM311600 21006KT 4SM -SHRA BR VCTS OVC009CB
     FM311800 21008KT P6SM VCTS OVC015CB
     FM312100 21007KT P6SM VCTS OVC025CB
     FM010100 21005KT P6SM OVC035
     FM010900 21005KT 5SM BR BKN015=

USA.gov is the U.S. government's official web portal to all federal, state and local government web resources and services.